createdAt,value
2023-02-27T00:00:16.332Z,23.60
2023-02-27T00:04:16.332Z,23.57
2023-02-27T00:08:16.319Z,23.59
2023-02-27T00:12:16.337Z,23.61
2023-02-27T00:16:16.376Z,23.64
2023-02-27T00:20:16.300Z,23.64
2023-02-27T00:24:16.305Z,23.75
2023-02-27T00:28:16.284Z,23.77
2023-02-27T00:32:16.334Z,23.74
2023-02-27T00:36:16.343Z,23.75
2023-02-27T00:40:16.347Z,23.67
2023-02-27T00:44:16.352Z,23.74
2023-02-27T00:48:16.347Z,23.65
2023-02-27T00:52:16.368Z,23.61
2023-02-27T00:56:16.381Z,23.61
2023-02-27T01:00:16.355Z,23.62
2023-02-27T01:04:16.393Z,23.72
2023-02-27T01:08:16.445Z,23.65
2023-02-27T01:12:16.449Z,23.75
2023-02-27T01:16:16.541Z,23.73
2023-02-27T01:20:16.513Z,23.70
2023-02-27T01:24:16.575Z,23.73
2023-02-27T01:28:16.589Z,23.94
2023-02-27T01:32:16.826Z,23.91
2023-02-27T01:36:16.729Z,23.86
2023-02-27T01:40:16.896Z,23.94
2023-02-27T01:44:16.840Z,23.91
2023-02-27T01:48:16.967Z,23.96
2023-02-27T01:52:16.959Z,23.87
2023-02-27T01:56:17.012Z,23.97
2023-02-27T02:00:17.071Z,23.96
2023-02-27T02:04:17.138Z,24.00
2023-02-27T02:08:17.200Z,24.00
2023-02-27T02:12:17.231Z,23.95
2023-02-27T02:16:17.427Z,24.04
2023-02-27T02:20:17.368Z,24.10
2023-02-27T02:24:17.467Z,24.24
2023-02-27T02:28:17.566Z,24.25
2023-02-27T02:32:17.742Z,24.15
2023-02-27T02:36:17.749Z,24.14
2023-02-27T02:40:17.885Z,24.17
2023-02-27T02:44:18.001Z,24.28
2023-02-27T02:48:18.138Z,24.14
2023-02-27T02:52:18.187Z,24.18
2023-02-27T02:56:18.310Z,24.27
2023-02-27T03:00:18.420Z,24.22
2023-02-27T03:04:18.615Z,24.44
2023-02-27T03:08:18.641Z,24.53
2023-02-27T03:12:18.767Z,24.57
2023-02-27T03:16:18.862Z,24.51
2023-02-27T03:20:18.974Z,24.57
2023-02-27T03:24:19.110Z,24.58
2023-02-27T03:28:19.224Z,24.66
2023-02-27T03:32:19.376Z,24.69
2023-02-27T03:36:19.413Z,24.74
2023-02-27T03:40:19.542Z,24.88
2023-02-27T03:44:19.666Z,24.94
2023-02-27T03:48:19.774Z,24.96
2023-02-27T03:52:19.879Z,24.94
2023-02-27T03:56:19.976Z,24.98
2023-02-27T04:00:20.070Z,24.97
2023-02-27T04:04:20.158Z,25.07
2023-02-27T04:08:21.097Z,25.10
2023-02-27T04:12:20.416Z,25.04
2023-02-27T04:16:20.505Z,25.04
2023-02-27T04:20:20.611Z,25.18
2023-02-27T04:24:20.704Z,25.09
2023-02-27T04:28:20.822Z,25.04
2023-02-27T04:32:20.958Z,24.89
2023-02-27T04:36:21.032Z,25.00
2023-02-27T04:40:21.147Z,25.10
2023-02-27T04:44:21.270Z,25.24
2023-02-27T04:48:21.419Z,25.13
2023-02-27T04:52:21.606Z,25.11
2023-02-27T04:56:21.672Z,25.24
2023-02-27T05:00:21.782Z,25.13
2023-02-27T05:04:21.897Z,25.07
2023-02-27T05:08:22.022Z,25.03
2023-02-27T05:12:22.137Z,24.99
2023-02-27T05:16:22.325Z,24.92
2023-02-27T05:20:22.392Z,24.95
2023-02-27T05:24:22.490Z,24.92
2023-02-27T05:28:23.117Z,24.87
2023-02-27T05:32:22.715Z,24.98
2023-02-27T05:36:22.842Z,24.99
2023-02-27T05:40:22.937Z,25.06
2023-02-27T05:44:23.100Z,24.98
2023-02-27T05:48:23.209Z,24.96
2023-02-27T05:52:23.358Z,25.01
2023-02-27T05:56:23.463Z,25.43
2023-02-27T06:00:23.594Z,25.81
2023-02-27T06:04:23.714Z,26.31
2023-02-27T06:08:23.860Z,26.39
2023-02-27T06:12:23.972Z,26.55
2023-02-27T06:16:24.142Z,26.78
2023-02-27T06:20:24.220Z,27.04
2023-02-27T06:24:24.357Z,27.21
2023-02-27T06:28:24.430Z,27.20
2023-02-27T06:32:24.450Z,27.44
2023-02-27T06:36:24.540Z,31.25
2023-02-27T06:40:24.670Z,28.41
2023-02-27T06:44:24.664Z,29.86
2023-02-27T06:48:24.885Z,34.66
2023-02-27T06:52:25.149Z,37.70
2023-02-27T06:56:25.325Z,41.50
2023-02-27T07:00:25.667Z,44.19
2023-02-27T07:04:25.672Z,44.55
2023-02-27T07:08:25.418Z,45.40
2023-02-27T07:12:25.550Z,45.20
2023-02-27T07:16:25.891Z,46.94
2023-02-27T07:20:26.189Z,47.96
2023-02-27T07:24:25.700Z,49.52
2023-02-27T07:28:25.736Z,50.50
2023-02-27T07:32:26.274Z,51.57
2023-02-27T07:36:26.070Z,51.77
2023-02-27T07:40:25.800Z,51.97
2023-02-27T07:44:25.782Z,52.67
2023-02-27T07:48:26.155Z,49.62
2023-02-27T07:52:26.192Z,47.65
2023-02-27T07:56:25.839Z,46.40
2023-02-27T08:00:25.599Z,46.52
2023-02-27T08:04:25.631Z,46.80
2023-02-27T08:08:25.686Z,48.12
2023-02-27T08:12:25.514Z,50.13
2023-02-27T08:16:26.139Z,50.33
2023-02-27T08:20:25.471Z,49.70
2023-02-27T08:24:25.438Z,49.93
2023-02-27T08:28:25.372Z,50.74
2023-02-27T08:32:25.365Z,52.06
2023-02-27T08:36:25.729Z,52.95
2023-02-27T08:40:25.682Z,53.69
2023-02-27T08:44:25.707Z,53.76
2023-02-27T08:48:25.711Z,54.05
2023-02-27T08:52:25.225Z,53.99
2023-02-27T08:56:25.447Z,54.11
2023-02-27T09:00:25.362Z,54.74
2023-02-27T09:04:25.080Z,54.25
2023-02-27T09:08:25.128Z,54.64
2023-02-27T09:12:25.012Z,55.08
2023-02-27T09:16:25.119Z,55.65
2023-02-27T09:20:24.956Z,55.36
2023-02-27T09:24:24.936Z,55.44
2023-02-27T09:28:24.869Z,55.62
2023-02-27T09:32:24.906Z,55.91
2023-02-27T09:36:25.748Z,55.50
2023-02-27T09:40:25.199Z,55.17
2023-02-27T09:44:36.371Z,55.21
2023-02-27T09:48:25.809Z,55.30
2023-02-27T09:52:25.214Z,55.54
2023-02-27T09:56:25.449Z,55.83
2023-02-27T10:00:25.194Z,55.92
2023-02-27T10:04:25.696Z,56.83
2023-02-27T10:08:25.171Z,57.10
2023-02-27T10:12:25.322Z,57.23
2023-02-27T10:16:26.133Z,57.50
2023-02-27T10:20:25.516Z,57.66
2023-02-27T10:24:25.481Z,58.04
2023-02-27T10:28:25.422Z,58.16
2023-02-27T10:32:25.385Z,58.52
2023-02-27T10:36:33.584Z,58.41
2023-02-27T10:40:26.766Z,58.56
2023-02-27T10:44:25.730Z,58.32
2023-02-27T10:48:25.735Z,58.54
2023-02-27T10:52:25.197Z,58.72
2023-02-27T10:56:25.599Z,59.05
2023-02-27T11:00:25.708Z,59.33
2023-02-27T11:04:25.443Z,59.40
2023-02-27T11:08:25.411Z,58.82
2023-02-27T11:12:25.703Z,59.22
2023-02-27T11:16:25.420Z,59.30
2023-02-27T11:20:25.408Z,59.57
2023-02-27T11:24:25.380Z,59.79
2023-02-27T11:28:25.398Z,60.05
2023-02-27T11:32:25.437Z,60.11
2023-02-27T11:36:25.750Z,60.44
2023-02-27T11:40:25.774Z,59.91
2023-02-27T11:44:32.771Z,59.36
2023-02-27T11:48:26.385Z,58.46
2023-02-27T11:52:25.360Z,58.33
2023-02-27T11:56:25.730Z,57.93
2023-02-27T12:00:25.288Z,57.65
2023-02-27T12:04:25.785Z,57.14
2023-02-27T12:08:25.519Z,56.28
2023-02-27T12:12:25.747Z,53.76
2023-02-27T12:16:25.678Z,52.14
2023-02-27T12:20:25.432Z,53.10
2023-02-27T12:24:25.372Z,53.90
2023-02-27T12:28:25.758Z,53.96
2023-02-27T12:32:25.824Z,53.47
2023-02-27T12:36:25.257Z,52.71
2023-02-27T12:40:25.241Z,52.73
2023-02-27T12:44:25.197Z,52.42
2023-02-27T12:48:25.149Z,52.50
2023-02-27T12:52:25.113Z,52.84
2023-02-27T12:56:25.060Z,53.38
2023-02-27T13:00:25.250Z,53.48
2023-02-27T13:04:25.018Z,54.00
2023-02-27T13:08:24.966Z,53.63
2023-02-27T13:12:24.918Z,52.89
2023-02-27T13:16:25.279Z,52.85
2023-02-27T13:20:24.858Z,54.26
2023-02-27T13:24:25.296Z,54.27
2023-02-27T13:28:25.269Z,54.64
2023-02-27T13:32:30.009Z,54.99
2023-02-27T13:36:25.790Z,55.47
2023-02-27T13:40:24.763Z,56.19
2023-02-27T13:44:24.743Z,56.70
2023-02-27T13:48:24.688Z,56.33
2023-02-27T13:52:24.670Z,56.88
2023-02-27T13:56:24.641Z,57.48
2023-02-27T14:00:24.723Z,57.45
2023-02-27T14:04:24.877Z,57.22
2023-02-27T14:08:24.979Z,57.74
2023-02-27T14:12:27.092Z,58.51
2023-02-27T14:16:25.131Z,58.19
2023-02-27T14:20:24.991Z,57.87
2023-02-27T14:24:24.981Z,58.30
2023-02-27T14:28:24.940Z,58.73
2023-02-27T14:32:24.939Z,58.91
2023-02-27T14:36:24.920Z,58.74
2023-02-27T14:40:30.123Z,58.56
2023-02-27T14:44:25.798Z,59.01
2023-02-27T14:48:24.712Z,59.17
2023-02-27T14:52:24.713Z,58.94
2023-02-27T14:56:24.733Z,59.00
2023-02-27T15:00:24.908Z,59.34
2023-02-27T15:04:25.209Z,59.52
2023-02-27T15:08:25.657Z,59.59
2023-02-27T15:12:25.396Z,59.63
2023-02-27T15:16:25.932Z,59.48
2023-02-27T15:20:25.798Z,58.49
2023-02-27T15:24:25.776Z,58.68
2023-02-27T15:28:25.917Z,58.97
2023-02-27T15:32:26.097Z,59.61
2023-02-27T15:36:26.237Z,60.01
2023-02-27T15:40:26.406Z,60.22
2023-02-27T15:44:26.566Z,60.84
2023-02-27T15:48:26.723Z,61.42
2023-02-27T15:52:26.840Z,62.25
2023-02-27T15:56:26.984Z,61.99
2023-02-27T16:00:27.116Z,62.58
2023-02-27T16:04:27.265Z,62.99
2023-02-27T16:08:27.833Z,63.09
2023-02-27T16:12:27.534Z,63.12
2023-02-27T16:16:28.069Z,63.93
2023-02-27T16:20:27.785Z,63.95
2023-02-27T16:24:27.938Z,64.58
2023-02-27T16:28:28.053Z,63.58
2023-02-27T16:32:28.245Z,63.47
2023-02-27T16:36:28.677Z,63.94
2023-02-27T16:40:28.555Z,63.64
2023-02-27T16:44:28.642Z,62.90
2023-02-27T16:48:28.754Z,63.39
2023-02-27T16:52:28.958Z,63.56
2023-02-27T16:56:37.689Z,63.32
2023-02-27T17:00:30.086Z,63.02
2023-02-27T17:04:29.070Z,63.27
2023-02-27T17:08:28.988Z,63.29
2023-02-27T17:12:29.099Z,62.97
2023-02-27T17:16:29.667Z,62.89
2023-02-27T17:20:29.410Z,62.27
2023-02-27T17:24:29.611Z,62.33
2023-02-27T17:28:29.811Z,62.41
2023-02-27T17:32:30.038Z,62.27
2023-02-27T17:36:30.416Z,62.47
2023-02-27T17:40:29.997Z,62.28
2023-02-27T17:44:29.913Z,62.41
2023-02-27T17:48:29.885Z,62.22
2023-02-27T17:52:29.832Z,62.43
2023-02-27T17:56:30.186Z,62.61
2023-02-27T18:00:29.841Z,62.32
2023-02-27T18:04:29.821Z,62.09
2023-02-27T18:08:29.778Z,61.66
2023-02-27T18:12:29.771Z,61.31
2023-02-27T18:16:30.151Z,60.69
2023-02-27T18:20:29.638Z,60.27
2023-02-27T18:24:29.645Z,59.84
2023-02-27T18:28:29.577Z,59.44
2023-02-27T18:32:29.530Z,58.97
2023-02-27T18:36:30.015Z,58.38
2023-02-27T18:40:29.482Z,57.95
2023-02-27T18:44:29.441Z,57.53
2023-02-27T18:48:29.471Z,57.23
2023-02-27T18:52:29.389Z,56.81
2023-02-27T18:56:29.700Z,56.59
2023-02-27T19:00:29.290Z,56.36
2023-02-27T19:04:29.251Z,56.05
2023-02-27T19:08:29.238Z,55.75
2023-02-27T19:12:29.166Z,55.50
2023-02-27T19:16:29.469Z,55.24
2023-02-27T19:20:29.135Z,54.97
2023-02-27T19:24:29.062Z,54.70
2023-02-27T19:28:30.004Z,54.42
2023-02-27T19:32:28.993Z,54.10
2023-02-27T19:36:29.336Z,53.84
2023-02-27T19:40:28.951Z,53.57
2023-02-27T19:44:28.960Z,53.27
2023-02-27T19:48:28.885Z,53.03
2023-02-27T19:52:28.897Z,52.80
2023-02-27T19:56:29.377Z,52.48
2023-02-27T20:00:28.958Z,52.29
2023-02-27T20:04:28.982Z,52.08
2023-02-27T20:08:29.020Z,51.84
2023-02-27T20:12:29.043Z,51.66
2023-02-27T20:16:29.405Z,51.42
2023-02-27T20:20:31.721Z,51.15
2023-02-27T20:24:29.074Z,50.97
2023-02-27T20:28:29.022Z,50.76
2023-02-27T20:32:29.114Z,50.52
2023-02-27T20:36:28.958Z,50.34
2023-02-27T20:40:28.905Z,50.13
2023-02-27T20:44:28.892Z,49.85
2023-02-27T20:48:28.821Z,49.64
2023-02-27T20:52:28.799Z,49.51
2023-02-27T20:56:28.782Z,49.31
2023-02-27T21:00:28.701Z,49.17
2023-02-27T21:04:28.734Z,48.86
2023-02-27T21:08:28.637Z,48.63
2023-02-27T21:12:28.594Z,48.46
2023-02-27T21:16:28.567Z,48.37
2023-02-27T21:20:28.539Z,48.20
2023-02-27T21:24:28.510Z,48.04
2023-02-27T21:28:28.459Z,47.79
2023-02-27T21:32:28.408Z,47.65
2023-02-27T21:36:28.407Z,47.49
2023-02-27T21:40:28.376Z,47.26
2023-02-27T21:44:28.290Z,47.11
2023-02-27T21:48:28.245Z,46.99
2023-02-27T21:52:28.231Z,46.83
2023-02-27T21:56:28.522Z,46.51
2023-02-27T22:00:28.132Z,46.38
2023-02-27T22:04:28.102Z,46.26
2023-02-27T22:08:28.063Z,46.06
2023-02-27T22:12:28.038Z,46.01
2023-02-27T22:16:27.997Z,45.84
2023-02-27T22:20:28.046Z,45.67
2023-02-27T22:24:28.148Z,45.51
2023-02-27T22:28:28.204Z,45.31
2023-02-27T22:32:28.223Z,45.21
2023-02-27T22:36:28.245Z,45.06
2023-02-27T22:40:28.324Z,44.95
2023-02-27T22:44:28.337Z,44.80
2023-02-27T22:48:28.369Z,44.66
2023-02-27T22:52:28.467Z,44.56
2023-02-27T22:56:28.493Z,44.39
2023-02-27T23:00:28.506Z,44.29
2023-02-27T23:04:28.582Z,44.18
2023-02-27T23:08:28.621Z,44.02
2023-02-27T23:12:28.683Z,43.89
2023-02-27T23:16:28.839Z,43.78
2023-02-27T23:20:28.755Z,43.64
2023-02-27T23:24:28.784Z,43.53
2023-02-27T23:28:28.879Z,43.40
2023-02-27T23:32:28.945Z,43.28
2023-02-27T23:36:28.961Z,43.16
2023-02-27T23:40:28.980Z,43.00
2023-02-27T23:44:29.028Z,42.98
2023-02-27T23:48:29.088Z,42.79
2023-02-27T23:52:29.122Z,42.69
2023-02-27T23:56:29.156Z,42.55
